Time;durP1;ratioP1;P1;durP2;ratioP2;P2;SDS_P1;SDS_P2;PMS_P1;PMS_P2;Temp;Humidity;BMP_temperature;BMP_pressure;BME280_temperature;BME280_humidity;BME280_pressure;Samples;Min_cycle;Max_cycle;Signal;HPM_P1;HPM_P2
2023/08/18 00:02:19;;;;;;;;;;;;;;;17.86;45.62;100708.63;5079030;28;1023;-52
2023/08/18 00:04:46;;;;;;;;;;;;;;;17.86;45.38;100707.81;5082543;28;1094;-50
2023/08/18 00:07:11;;;;;;;;;;;;;;;17.86;45.63;100707.81;5089133;28;1909;-51
2023/08/18 00:09:37;;;;;;;;;;;;;;;17.88;45.53;100705.59;5092030;28;1099;-50
2023/08/18 00:12:04;;;;;;;;;;;;;;;17.92;45.30;100709.44;5078756;28;1035;-50
2023/08/18 00:14:30;;;;;;;;;;;;;;;17.95;45.15;100709.72;5092535;28;1128;-50
2023/08/18 00:16:56;;;;;;;;;;;;;;;18.01;44.94;100716.00;5088584;28;1054;-53
2023/08/18 00:19:21;;;;;;;;;;;;;;;17.88;45.17;100719.34;5085539;28;1194;-49
2023/08/18 00:21:47;;;;;;;;;;;;;;;17.89;45.20;100716.34;5097960;28;873;-51
2023/08/18 00:24:12;;;;;;;;;;;;;;;17.89;44.87;100718.25;5085220;28;1054;-49
2023/08/18 00:26:38;;;;;;;;;;;;;;;17.83;44.97;100713.88;5098796;28;1023;-51
2023/08/18 00:29:03;;;;;;;;;;;;;;;17.90;44.58;100712.44;5063892;28;1976;-48
2023/08/18 00:31:29;;;;;;;;;;;;;;;17.76;45.12;100709.50;5078484;28;1076;-47
2023/08/18 00:33:55;;;;;;;;;;;;;;;17.83;44.75;100711.94;5075704;28;1067;-51
2023/08/18 00:36:20;;;;;;;;;;;;;;;17.86;44.58;100708.63;5076587;28;1002;-50
2023/08/18 00:38:46;;;;;;;;;;;;;;;17.88;44.64;100705.59;5092200;28;1166;-47
2023/08/18 00:41:11;;;;;;;;;;;;;;;17.83;44.58;100709.19;5087718;28;1058;-49
2023/08/18 00:43:37;;;;;;;;;;;;;;;17.81;44.50;100700.41;5081393;28;1038;-50
2023/08/18 00:46:02;;;;;;;;;;;;;;;17.84;44.53;100710.00;5078128;28;873;-49
2023/08/18 00:48:28;;;;;;;;;;;;;;;17.85;44.39;100711.66;5078182;28;2013;-50
2023/08/18 00:50:53;;;;;;;;;;;;;;;17.81;44.56;100711.41;5070683;28;1047;-51
2023/08/18 00:53:19;;;;;;;;;;;;;;;17.84;44.40;100710.00;5059799;28;1180;-51
2023/08/18 00:55:45;;;;;;;;;;;;;;;17.83;44.40;100702.88;5071141;28;1147;-52
2023/08/18 00:58:11;;;;;;;;;;;;;;;17.77;44.72;100694.66;5079940;28;953;-53
2023/08/18 01:00:37;;;;;;;;;;;;;;;17.75;44.50;100705.13;5080243;28;1050;-50
2023/08/18 01:03:04;;;;;;;;;;;;;;;17.76;44.43;100695.75;5077023;28;1046;-48
2023/08/18 01:05:30;;;;;;;;;;;;;;;17.79;44.21;100703.47;5079533;28;1434;-52
2023/08/18 01:07:55;;;;;;;;;;;;;;;17.71;44.66;100704.03;5084261;28;1906;-50
2023/08/18 01:10:21;;;;;;;;;;;;;;;17.81;44.31;100711.41;5087626;28;910;-53
2023/08/18 01:12:53;;;;;;;;;;;;;;;17.74;44.38;100708.13;5059243;28;1139;-52
2023/08/18 01:15:20;;;;;;;;;;;;;;;17.79;44.35;100706.22;5059757;28;1247;-52
2023/08/18 01:17:53;;;;;;;;;;;;;;;17.84;44.18;100699.00;5090686;28;1058;-50
2023/08/18 01:20:19;;;;;;;;;;;;;;;17.73;44.39;100704.56;5088989;28;1327;-52
2023/08/18 01:22:45;;;;;;;;;;;;;;;17.72;44.36;100702.09;5066021;28;1316;-50
2023/08/18 01:25:12;;;;;;;;;;;;;;;17.84;44.13;100705.34;5079443;28;1129;-50
2023/08/18 01:27:38;;;;;;;;;;;;;;;17.65;44.44;100707.09;5060144;28;1917;-51
2023/08/18 01:30:04;;;;;;;;;;;;;;;17.69;44.30;100702.69;5071094;28;1151;-51
2023/08/18 01:32:30;;;;;;;;;;;;;;;17.68;44.37;100701.84;5074394;28;1168;-52
2023/08/18 01:34:56;;;;;;;;;;;;;;;17.66;44.36;100703.25;5054019;28;1543;-48
2023/08/18 01:37:23;;;;;;;;;;;;;;;17.62;44.58;100701.03;5066326;28;1077;-48
2023/08/18 01:39:49;;;;;;;;;;;;;;;17.72;44.19;100707.63;5062531;28;1129;-49
2023/08/18 01:42:15;;;;;;;;;;;;;;;17.58;44.61;100701.91;5059941;28;1297;-51
2023/08/18 01:44:41;;;;;;;;;;;;;;;17.63;44.54;100707.38;5088880;28;1170;-52
2023/08/18 01:47:06;;;;;;;;;;;;;;;17.63;44.54;100699.13;5075232;28;1913;-51
2023/08/18 01:49:33;;;;;;;;;;;;;;;17.62;44.51;100700.22;5066423;28;1138;-48
2023/08/18 01:51:58;;;;;;;;;;;;;;;17.70;44.26;100699.66;5076987;28;1151;-49
2023/08/18 01:54:24;;;;;;;;;;;;;;;17.62;44.53;100698.28;5076996;28;1015;-50
2023/08/18 01:56:50;;;;;;;;;;;;;;;17.61;44.41;100698.59;5076960;28;1066;-51
2023/08/18 01:59:15;;;;;;;;;;;;;;;17.66;44.44;100692.25;5059744;28;1419;-53
2023/08/18 02:01:41;;;;;;;;;;;;;;;17.64;44.57;100694.44;5063795;28;1408;-49
2023/08/18 02:04:06;;;;;;;;;;;;;;;17.60;44.26;100696.97;5067182;28;1675;-48
2023/08/18 02:06:32;;;;;;;;;;;;;;;17.62;44.32;100691.97;5076698;28;1075;-51
2023/08/18 02:08:57;;;;;;;;;;;;;;;17.71;44.13;100697.72;5076930;28;1970;-51
2023/08/18 02:11:23;;;;;;;;;;;;;;;17.60;44.46;100680.47;5090039;28;1280;-50
2023/08/18 02:13:52;;;;;;;;;;;;;;;17.57;44.49;100679.09;5070860;28;1219;-51
2023/08/18 02:16:17;;;;;;;;;;;;;;;17.66;44.18;100684.81;5073649;28;1399;-47
2023/08/18 02:18:43;;;;;;;;;;;;;;;17.53;44.36;100693.66;5076594;28;1004;-51
2023/08/18 02:21:08;;;;;;;;;;;;;;;17.56;44.31;100696.69;5057880;28;1607;-49
2023/08/18 02:23:34;;;;;;;;;;;;;;;17.57;44.34;100694.75;5076607;28;1071;-50
2023/08/18 02:26:00;;;;;;;;;;;;;;;17.67;44.30;100691.97;5089726;28;1139;-51
2023/08/18 02:28:25;;;;;;;;;;;;;;;17.60;44.18;100694.22;5070392;28;1964;-51
2023/08/18 02:31:02;;;;;;;;;;;;;;;17.56;44.18;100709.63;5077727;28;1105;-53
2023/08/18 02:33:31;;;;;;;;;;;;;;;17.57;44.28;100706.59;5076008;28;1109;-50
2023/08/18 02:35:58;;;;;;;;;;;;;;;17.57;44.40;100708.50;5083334;28;1138;-52
2023/08/18 02:38:24;;;;;;;;;;;;;;;17.61;44.14;100712.31;5082892;28;1169;-52
2023/08/18 02:40:49;;;;;;;;;;;;;;;17.51;44.14;100715.13;5089012;28;1133;-51
2023/08/18 02:43:15;;;;;;;;;;;;;;;17.54;43.98;100712.63;5072278;28;1273;-50
2023/08/18 02:45:40;;;;;;;;;;;;;;;17.53;44.22;100721.16;5070764;28;1403;-52
2023/08/18 02:48:06;;;;;;;;;;;;;;;17.55;44.16;100727.22;5076003;28;1971;-50
2023/08/18 02:50:31;;;;;;;;;;;;;;;17.52;44.44;100722.28;5083950;28;1027;-52
2023/08/18 02:53:03;;;;;;;;;;;;;;;17.52;44.26;100728.59;5081685;28;1166;-52
2023/08/18 02:55:28;;;;;;;;;;;;;;;17.49;44.33;100726.41;5084589;28;1089;-49
2023/08/18 02:57:54;;;;;;;;;;;;;;;17.50;44.41;100728.06;5091580;28;1070;-50
2023/08/18 03:00:19;;;;;;;;;;;;;;;17.49;44.61;100728.31;5058369;28;1385;-51
2023/08/18 03:02:45;;;;;;;;;;;;;;;17.61;44.10;100726.06;5064202;28;960;-51
2023/08/18 03:05:11;;;;;;;;;;;;;;;17.52;44.30;100731.34;5076228;28;1058;-51
2023/08/18 03:07:36;;;;;;;;;;;;;;;17.51;44.45;100735.19;5067847;28;1914;-49
2023/08/18 03:10:02;;;;;;;;;;;;;;;17.47;44.61;100731.34;5075561;28;1064;-49
2023/08/18 03:12:27;;;;;;;;;;;;;;;17.47;44.40;100741.53;5089096;28;1109;-49
2023/08/18 03:14:53;;;;;;;;;;;;;;;17.51;44.42;100742.63;5096140;28;1162;-52
2023/08/18 03:17:18;;;;;;;;;;;;;;;17.51;44.40;100748.13;5088518;28;1213;-50
2023/08/18 03:19:45;;;;;;;;;;;;;;;17.47;44.49;100750.59;5068124;28;1221;-50
2023/08/18 03:22:11;;;;;;;;;;;;;;;17.53;44.22;100751.41;5081988;28;1110;-49
2023/08/18 03:24:36;;;;;;;;;;;;;;;17.41;44.46;100751.72;5079477;28;1026;-47
2023/08/18 03:27:02;;;;;;;;;;;;;;;17.56;44.25;100753.63;5090461;28;1905;-46
2023/08/18 03:29:28;;;;;;;;;;;;;;;17.53;44.26;100759.66;5071189;28;2029;-48
2023/08/18 03:31:54;;;;;;;;;;;;;;;17.50;44.08;100754.72;5068766;28;1470;-48
2023/08/18 03:34:20;;;;;;;;;;;;;;;17.45;44.53;100756.38;5095628;28;1065;-46
2023/08/18 03:36:46;;;;;;;;;;;;;;;17.49;44.31;100756.66;5081384;28;1039;-49
2023/08/18 03:39:12;;;;;;;;;;;;;;;17.45;44.36;100759.13;5085934;28;1102;-51
2023/08/18 03:41:38;;;;;;;;;;;;;;;17.52;44.19;100769.03;5081730;28;1138;-46
2023/08/18 03:44:03;;;;;;;;;;;;;;;17.42;44.37;100758.88;5094592;28;1132;-46
2023/08/18 03:46:29;;;;;;;;;;;;;;;17.45;44.30;100770.13;5079300;28;1027;-46
2023/08/18 03:48:57;;;;;;;;;;;;;;;17.39;44.47;100763.00;5079011;28;1905;-49
2023/08/18 03:51:22;;;;;;;;;;;;;;;17.54;45.03;100762.13;5095403;28;1142;-52
2023/08/18 03:53:48;;;;;;;;;;;;;;;17.58;44.54;100773.38;5080157;28;1334;-54
2023/08/18 03:56:15;;;;;;;;;;;;;;;17.51;44.66;100773.69;5068676;28;1874;-50
2023/08/18 03:58:41;;;;;;;;;;;;;;;17.57;44.42;100777.22;5091584;28;1054;-53
2023/08/18 04:01:10;;;;;;;;;;;;;;;17.49;44.28;100775.91;5092817;28;1174;-50
2023/08/18 04:03:37;;;;;;;;;;;;;;;17.55;44.51;100776.69;5079989;28;1333;-52
2023/08/18 04:06:03;;;;;;;;;;;;;;;17.59;44.06;100772.28;5098705;28;1089;-51
2023/08/18 04:08:49;;;;;;;;;;;;;;;17.41;44.63;100785.53;5098228;28;1917;-54
2023/08/18 04:11:15;;;;;;;;;;;;;;;17.49;44.53;100780.56;5098414;28;1602;-55
2023/08/18 04:13:44;;;;;;;;;;;;;;;17.51;44.24;100779.19;5099096;28;1062;-55
2023/08/18 04:16:09;;;;;;;;;;;;;;;17.43;44.45;100775.09;5098919;28;1271;-55
2023/08/18 04:18:36;;;;;;;;;;;;;;;17.46;44.17;100776.47;5079950;28;1113;-56
2023/08/18 04:21:02;;;;;;;;;;;;;;;17.49;44.24;100775.91;5080654;28;1189;-55
2023/08/18 04:23:29;;;;;;;;;;;;;;;17.53;44.60;100787.13;5080287;28;1217;-53
2023/08/18 04:25:56;;;;;;;;;;;;;;;17.45;44.47;100785.81;5080639;28;1024;-50
2023/08/18 04:28:21;;;;;;;;;;;;;;;17.48;44.64;100778.94;5098748;28;1983;-47
2023/08/18 04:30:47;;;;;;;;;;;;;;;17.45;44.56;100792.13;5080309;28;1517;-53
2023/08/18 04:33:23;;;;;;;;;;;;;;;17.49;44.91;100791.56;5080540;28;1213;-53
2023/08/18 04:35:49;;;;;;;;;;;;;;;17.48;44.62;100784.44;5098323;28;1109;-55
2023/08/18 04:38:16;;;;;;;;;;;;;;;17.48;44.43;100785.25;5079867;28;1397;-52
2023/08/18 04:40:42;;;;;;;;;;;;;;;17.47;44.56;100788.28;5080003;28;1422;-54
2023/08/18 04:43:08;;;;;;;;;;;;;;;17.42;44.73;100789.94;5080217;28;1401;-53
2023/08/18 04:45:34;;;;;;;;;;;;;;;18.33;44.91;100794.53;5097178;28;1069;-55
2023/08/18 04:48:00;;;;;;;;;;;;;;;18.63;44.77;100787.16;5079407;28;2000;-53
2023/08/18 04:50:26;;;;;;;;;;;;;;;18.43;45.62;100788.13;5080073;28;1182;-52
2023/08/18 04:52:52;;;;;;;;;;;;;;;18.26;46.14;100794.03;5080191;28;1327;-53
2023/08/18 04:55:18;;;;;;;;;;;;;;;18.15;46.95;100787.75;5079614;28;1067;-50
2023/08/18 04:57:44;;;;;;;;;;;;;;;18.10;47.25;100791.34;5080092;28;1261;-52
2023/08/18 05:00:11;;;;;;;;;;;;;;;18.06;47.57;100790.28;5079234;28;1158;-51
2023/08/18 05:02:36;;;;;;;;;;;;;;;18.07;47.90;100789.16;5079893;28;1242;-51
2023/08/18 05:05:03;;;;;;;;;;;;;;;18.00;48.56;100794.13;5079726;28;1161;-54
2023/08/18 05:07:28;;;;;;;;;;;;;;;17.93;48.86;100794.44;5098140;28;1917;-56
2023/08/18 05:09:54;;;;;;;;;;;;;;;17.93;48.91;100788.13;5097538;28;1200;-50
2023/08/18 05:12:20;;;;;;;;;;;;;;;17.89;49.33;100789.75;5097563;28;861;-55
2023/08/18 05:14:46;;;;;;;;;;;;;;;17.85;49.51;100792.28;5097850;28;1063;-55
2023/08/18 05:17:12;;;;;;;;;;;;;;;17.87;49.62;100798.31;5097592;28;1097;-56
2023/08/18 05:19:37;;;;;;;;;;;;;;;17.86;49.84;100798.59;5097769;28;1213;-54
2023/08/18 05:22:03;;;;;;;;;;;;;;;17.86;49.99;100799.41;5097578;28;1150;-55
2023/08/18 05:24:28;;;;;;;;;;;;;;;17.84;50.61;100798.88;5097004;28;1120;-53
2023/08/18 05:26:54;;;;;;;;;;;;;;;17.92;50.82;100801.06;5079361;28;1121;-54
2023/08/18 05:29:19;;;;;;;;;;;;;;;17.84;51.32;100798.03;5097392;28;1901;-54
2023/08/18 05:31:45;;;;;;;;;;;;;;;17.81;51.38;100806.84;5078551;28;1065;-52
2023/08/18 05:34:11;;;;;;;;;;;;;;;17.83;51.53;100801.91;5096566;28;1096;-55
2023/08/18 05:36:36;;;;;;;;;;;;;;;17.85;51.41;100806.03;5097516;28;931;-54
2023/08/18 05:39:02;;;;;;;;;;;;;;;17.78;51.41;100800.81;5096999;28;1122;-54
2023/08/18 05:41:27;;;;;;;;;;;;;;;17.79;51.68;100810.72;5097361;28;1038;-51
2023/08/18 05:43:53;;;;;;;;;;;;;;;17.77;51.55;100810.16;5097714;28;1145;-53
2023/08/18 05:46:18;;;;;;;;;;;;;;;17.76;51.90;100803.00;5097340;28;1061;-50
2023/08/18 05:48:44;;;;;;;;;;;;;;;17.76;51.93;100805.75;5096718;28;1914;-52
2023/08/18 05:51:09;;;;;;;;;;;;;;;17.78;51.89;100803.56;5097467;28;1067;-55
2023/08/18 05:53:35;;;;;;;;;;;;;;;17.77;51.85;100801.91;5097155;28;1038;-55
2023/08/18 05:56:01;;;;;;;;;;;;;;;17.81;51.82;100809.59;5096725;28;1070;-54
2023/08/18 05:58:26;;;;;;;;;;;;;;;17.74;52.18;100805.22;5096502;28;1058;-53
2023/08/18 06:00:52;;;;;;;;;;;;;;;17.81;52.05;100804.09;5096733;28;876;-52
2023/08/18 06:03:19;;;;;;;;;;;;;;;17.77;52.35;100799.16;5096293;28;1201;-57
2023/08/18 06:05:45;;;;;;;;;;;;;;;17.78;52.33;100798.06;5097045;28;1145;-58
2023/08/18 06:08:10;;;;;;;;;;;;;;;17.68;52.74;100791.78;5096772;28;1971;-52
2023/08/18 06:10:36;;;;;;;;;;;;;;;17.78;52.34;100797.22;5096131;28;1242;-54
2023/08/18 06:13:02;;;;;;;;;;;;;;;17.79;52.36;100794.22;5095874;28;932;-50
2023/08/18 06:15:27;;;;;;;;;;;;;;;17.78;52.68;100809.06;5096719;28;1102;-51
2023/08/18 06:17:53;;;;;;;;;;;;;;;17.77;52.55;100801.09;5096683;28;1251;-54
2023/08/18 06:20:18;;;;;;;;;;;;;;;17.85;52.39;100807.94;5096189;28;1086;-53
2023/08/18 06:22:43;;;;;;;;;;;;;;;17.83;52.63;100807.41;5096151;28;1441;-53
2023/08/18 06:25:11;;;;;;;;;;;;;;;17.83;52.73;100801.91;5096054;28;975;-55
2023/08/18 06:27:36;;;;;;;;;;;;;;;17.85;53.03;100799.69;5096173;28;1906;-54
2023/08/18 06:30:02;;;;;;;;;;;;;;;17.82;53.11;100806.56;5096743;28;1035;-55
2023/08/18 06:32:28;;;;;;;;;;;;;;;17.88;53.17;100810.13;5096424;28;1057;-56
2023/08/18 06:34:53;;;;;;;;;;;;;;;17.83;53.08;100812.91;5096405;28;1185;-57
2023/08/18 06:37:19;;;;;;;;;;;;;;;17.86;53.31;100817.84;5095299;28;1139;-57
2023/08/18 06:39:44;;;;;;;;;;;;;;;17.83;53.40;100805.47;5096575;28;1315;-53
2023/08/18 06:42:10;;;;;;;;;;;;;;;17.90;53.31;100807.91;5096451;28;1066;-55
2023/08/18 06:44:35;;;;;;;;;;;;;;;17.89;53.22;100817.28;5096194;28;995;-54
2023/08/18 06:47:01;;;;;;;;;;;;;;;17.87;53.32;100806.56;5096026;28;1220;-50
2023/08/18 06:49:27;;;;;;;;;;;;;;;17.94;54.15;100809.03;5096093;28;1980;-52
2023/08/18 06:51:52;;;;;;;;;;;;;;;17.98;54.04;100812.03;5096373;28;1117;-52
2023/08/18 06:54:18;;;;;;;;;;;;;;;18.03;54.51;100807.31;5100718;28;1305;-50
2023/08/18 06:56:44;;;;;;;;;;;;;;;19.27;51.25;100820.25;5091218;28;2094;-51
2023/08/18 06:59:12;;;;;;;;;;;;;;;19.04;54.42;100808.88;5095226;28;2219;-48
2023/08/18 07:01:38;;;;;;;;;;;;;;;18.44;54.56;100823.63;5095008;28;1831;-54
2023/08/18 07:04:05;;;;;;;;;;;;;;;18.34;54.09;100807.19;5095475;28;2354;-50
2023/08/18 07:06:33;;;;;;;;;;;;;;;18.29;54.14;100807.22;5094516;28;1895;-48
2023/08/18 07:08:59;;;;;;;;;;;;;;;18.19;53.41;100805.34;5098996;28;1900;-54
2023/08/18 07:11:24;;;;;;;;;;;;;;;18.36;51.94;100804.97;5090461;28;1023;-49
2023/08/18 07:13:50;;;;;;;;;;;;;;;18.30;51.06;100800.59;5092128;28;893;-51
2023/08/18 07:16:15;;;;;;;;;;;;;;;18.35;50.35;100808.00;5096723;28;958;-52
2023/08/18 07:18:41;;;;;;;;;;;;;;;18.32;49.60;100814.88;5092661;28;1169;-56
2023/08/18 07:21:06;;;;;;;;;;;;;;;20.33;45.73;100818.47;5090678;28;1965;-52
2023/08/18 07:23:32;;;;;;;;;;;;;;;16.27;59.13;100822.31;5091449;28;1841;-52
2023/08/18 07:25:58;;;;;;;;;;;;;;;18.07;52.17;100835.91;5092129;28;2062;-50
2023/08/18 07:28:24;;;;;;;;;;;;;;;18.35;50.57;100824.50;5085533;28;1909;-48
2023/08/18 07:30:49;;;;;;;;;;;;;;;18.38;49.72;100824.75;5086661;28;2176;-50
2023/08/18 07:33:15;;;;;;;;;;;;;;;18.44;48.84;100817.31;5094962;28;1686;-52
2023/08/18 07:35:40;;;;;;;;;;;;;;;18.45;48.60;100816.19;5091401;28;2033;-50
2023/08/18 07:38:06;;;;;;;;;;;;;;;18.48;48.32;100812.84;5078655;28;1067;-51
2023/08/18 07:40:31;;;;;;;;;;;;;;;18.50;48.13;100823.59;5098983;28;1049;-53
2023/08/18 07:42:58;;;;;;;;;;;;;;;18.49;47.98;100819.19;5098970;28;1143;-52
2023/08/18 07:45:23;;;;;;;;;;;;;;;18.54;47.74;100824.69;5098777;28;1055;-52
2023/08/18 07:47:49;;;;;;;;;;;;;;;18.47;47.64;100812.03;5086848;28;2028;-51
2023/08/18 07:50:14;;;;;;;;;;;;;;;18.54;47.54;100824.69;5098435;28;1259;-49
2023/08/18 07:52:40;;;;;;;;;;;;;;;18.50;47.42;100824.41;5094982;28;1255;-49
2023/08/18 07:55:06;;;;;;;;;;;;;;;18.54;47.41;100816.41;5093906;28;1146;-47
2023/08/18 07:57:31;;;;;;;;;;;;;;;18.51;47.33;100825.22;5097974;28;1382;-53
2023/08/18 07:59:57;;;;;;;;;;;;;;;18.55;47.11;100820.78;5093786;28;1129;-50
2023/08/18 08:02:22;;;;;;;;;;;;;;;18.50;47.33;100820.84;5097736;28;1057;-46
2023/08/18 08:04:48;;;;;;;;;;;;;;;18.55;47.17;100831.81;5071726;28;2335;-48
2023/08/18 08:07:13;;;;;;;;;;;;;;;18.58;47.15;100836.75;5091263;28;1981;-53
2023/08/18 08:09:39;;;;;;;;;;;;;;;18.50;47.55;100829.13;5077988;28;1042;-52
2023/08/18 08:12:05;;;;;;;;;;;;;;;18.63;47.15;100831.22;5079212;28;1162;-51
2023/08/18 08:14:30;;;;;;;;;;;;;;;18.61;47.00;100841.69;5097697;28;1146;-55
2023/08/18 08:16:56;;;;;;;;;;;;;;;18.51;47.51;100847.25;5097650;28;1028;-47
2023/08/18 08:19:21;;;;;;;;;;;;;;;18.57;47.09;100835.13;5096427;28;1062;-52
2023/08/18 08:21:47;;;;;;;;;;;;;;;18.69;47.05;100834.75;5097607;28;1086;-51
2023/08/18 08:24:12;;;;;;;;;;;;;;;18.61;47.31;100845.28;5095076;28;1173;-52
2023/08/18 08:26:38;;;;;;;;;;;;;;;18.68;47.16;100839.44;5098291;28;1133;-48
2023/08/18 08:29:03;;;;;;;;;;;;;;;18.71;47.05;100838.88;5095697;28;1910;-49
2023/08/18 08:31:29;;;;;;;;;;;;;;;18.62;47.20;100849.69;5097669;28;1200;-51
2023/08/18 08:33:54;;;;;;;;;;;;;;;18.67;46.93;100846.06;5097752;28;1142;-48
2023/08/18 08:36:19;;;;;;;;;;;;;;;18.68;47.15;100844.94;5093156;28;2535;-50
2023/08/18 08:38:45;;;;;;;;;;;;;;;18.79;46.94;100835.50;5098201;28;1141;-50
2023/08/18 08:41:10;;;;;;;;;;;;;;;18.64;47.33;100835.63;5097559;28;1398;-48
2023/08/18 08:43:36;;;;;;;;;;;;;;;18.76;47.00;100841.59;5097791;28;1272;-51
2023/08/18 08:46:01;;;;;;;;;;;;;;;18.76;47.29;100835.25;5097805;28;1331;-47
2023/08/18 08:48:32;;;;;;;;;;;;;;;18.75;47.12;100837.19;5074351;28;1914;-48
2023/08/18 08:50:58;;;;;;;;;;;;;;;18.78;47.24;100833.84;5074106;28;1276;-49
2023/08/18 08:53:31;;;;;;;;;;;;;;;18.81;47.11;100827.75;5097735;28;1260;-50
2023/08/18 08:55:57;;;;;;;;;;;;;;;18.71;47.35;100821.53;5096437;28;1393;-46
2023/08/18 08:58:23;;;;;;;;;;;;;;;18.85;47.17;100819.75;5079321;28;1087;-50
2023/08/18 09:00:48;;;;;;;;;;;;;;;18.77;47.32;100821.19;5089452;28;1252;-49
2023/08/18 09:03:14;;;;;;;;;;;;;;;18.69;47.47;100816.31;5091476;28;1284;-50
2023/08/18 09:05:39;;;;;;;;;;;;;;;18.84;47.33;100820.03;5075669;28;2325;-49
2023/08/18 09:08:05;;;;;;;;;;;;;;;18.76;47.47;100814.03;5077956;28;1971;-50
2023/08/18 09:10:31;;;;;;;;;;;;;;;18.89;46.84;100800.75;5083822;28;885;-49
2023/08/18 09:12:56;;;;;;;;;;;;;;;18.84;47.35;100812.59;5083465;28;1016;-50
2023/08/18 09:15:25;;;;;;;;;;;;;;;18.93;47.11;100813.66;5090214;28;1164;-50
2023/08/18 09:17:53;;;;;;;;;;;;;;;18.90;47.11;100821.66;5078043;28;1148;-50
2023/08/18 09:20:19;;;;;;;;;;;;;;;18.92;47.12;100820.28;5092214;28;1429;-53
2023/08/18 09:22:44;;;;;;;;;;;;;;;18.98;46.88;100815.53;5096765;28;1066;-52
2023/08/18 09:25:10;;;;;;;;;;;;;;;18.95;47.16;100816.13;5096065;28;1054;-52
2023/08/18 09:27:35;;;;;;;;;;;;;;;18.89;47.39;100820.03;5096095;28;1917;-49
2023/08/18 09:30:00;;;;;;;;;;;;;;;18.95;47.23;100805.91;5096106;28;1315;-48
2023/08/18 09:32:27;;;;;;;;;;;;;;;19.00;47.20;100815.25;5095631;28;1132;-53
2023/08/18 09:34:53;;;;;;;;;;;;;;;19.05;47.41;100810.50;5074961;28;1839;-51
2023/08/18 09:37:18;;;;;;;;;;;;;;;19.01;47.45;100809.44;5090449;28;1035;-54
2023/08/18 09:39:45;;;;;;;;;;;;;;;19.05;47.16;100809.69;5096790;28;1066;-53
2023/08/18 09:42:11;;;;;;;;;;;;;;;19.05;47.56;100805.00;5096425;28;995;-53
2023/08/18 09:44:36;;;;;;;;;;;;;;;19.09;47.41;100816.28;5077308;28;1177;-54
2023/08/18 09:47:03;;;;;;;;;;;;;;;19.10;47.20;100807.72;5095695;28;1312;-48
2023/08/18 09:49:28;;;;;;;;;;;;;;;19.07;47.12;100804.72;5095080;28;1972;-46
2023/08/18 09:52:00;;;;;;;;;;;;;;;19.05;47.29;100801.44;5077719;28;1197;-49
2023/08/18 09:54:26;;;;;;;;;;;;;;;19.04;47.13;100806.13;5078099;28;1375;-48
2023/08/18 09:56:51;;;;;;;;;;;;;;;19.12;47.05;100794.44;5077680;28;1488;-43
2023/08/18 09:59:22;;;;;;;;;;;;;;;19.16;46.99;100825.03;5077967;28;1312;-49
2023/08/18 10:01:48;;;;;;;;;;;;;;;19.15;46.92;100815.94;5077799;28;1356;-53
2023/08/18 10:04:13;;;;;;;;;;;;;;;19.12;46.88;100810.19;5077994;28;1102;-53
2023/08/18 10:06:39;;;;;;;;;;;;;;;19.22;46.87;100825.81;5076086;28;2450;-50
2023/08/18 10:09:05;;;;;;;;;;;;;;;19.12;47.12;100811.00;5077849;28;1902;-49
2023/08/18 10:11:30;;;;;;;;;;;;;;;19.21;46.77;100810.38;5095603;28;1056;-52
2023/08/18 10:13:56;;;;;;;;;;;;;;;16.31;54.71;100804.19;5076903;28;1431;-51
2023/08/18 10:16:21;;;;;;;;;;;;;;;18.35;48.94;100792.28;5077255;28;1054;-54
2023/08/18 10:18:56;;;;;;;;;;;;;;;18.61;48.20;100808.66;5077557;28;1062;-52
2023/08/18 10:21:22;;;;;;;;;;;;;;;18.86;48.48;100809.53;5095173;28;1292;-52
2023/08/18 10:23:47;;;;;;;;;;;;;;;18.90;48.14;100818.91;5095276;28;1316;-54
2023/08/18 10:26:14;;;;;;;;;;;;;;;18.93;47.90;100829.38;5095230;28;835;-53
2023/08/18 10:28:40;;;;;;;;;;;;;;;18.86;48.26;100829.69;5095759;28;1918;-53
2023/08/18 10:31:08;;;;;;;;;;;;;;;18.94;47.99;100836.50;5077281;28;1082;-54
2023/08/18 10:33:36;;;;;;;;;;;;;;;18.99;47.82;100830.97;5095761;28;1006;-56
2023/08/18 10:36:02;;;;;;;;;;;;;;;19.01;47.63;100830.69;5095060;28;2196;-51
2023/08/18 10:38:28;;;;;;;;;;;;;;;18.98;47.75;100834.84;5095486;28;861;-56
2023/08/18 10:40:54;;;;;;;;;;;;;;;19.02;47.59;100838.66;5095506;28;1082;-54
2023/08/18 10:43:19;;;;;;;;;;;;;;;19.07;47.38;100835.03;5097863;28;986;-48
2023/08/18 10:45:52;;;;;;;;;;;;;;;19.09;47.21;100816.28;5099806;28;1053;-52
2023/08/18 10:48:17;;;;;;;;;;;;;;;16.20;54.51;100828.06;5099614;28;1901;-53
2023/08/18 10:50:44;;;;;;;;;;;;;;;18.01;49.28;100825.25;5099142;28;1030;-47
2023/08/18 10:53:12;;;;;;;;;;;;;;;18.53;47.76;100820.28;5099833;28;1156;-49
2023/08/18 10:55:37;;;;;;;;;;;;;;;18.63;47.63;100832.06;5100125;28;1030;-54
2023/08/18 10:58:03;;;;;;;;;;;;;;;18.69;47.33;100830.09;5099719;28;1113;-52
2023/08/18 11:00:31;;;;;;;;;;;;;;;18.68;47.18;100828.44;5099424;28;1177;-56
2023/08/18 11:02:57;;;;;;;;;;;;;;;18.75;47.12;100831.69;5099351;28;832;-52
2023/08/18 11:05:23;;;;;;;;;;;;;;;18.83;46.81;100834.91;5097740;28;2304;-54
2023/08/18 11:07:51;;;;;;;;;;;;;;;18.73;47.24;100833.06;5099585;28;1922;-50
2023/08/18 11:10:20;;;;;;;;;;;;;;;18.87;46.85;100836.00;5099629;28;1123;-51
2023/08/18 11:12:46;;;;;;;;;;;;;;;18.79;46.79;100832.75;5099382;28;1296;-50
2023/08/18 11:15:12;;;;;;;;;;;;;;;18.86;46.70;100834.34;5094638;28;1296;-55
2023/08/18 11:17:38;;;;;;;;;;;;;;;18.75;47.00;100828.91;5098826;28;1375;-52
2023/08/18 11:20:07;;;;;;;;;;;;;;;18.86;46.94;100820.56;5099021;28;1342;-50
2023/08/18 11:22:33;;;;;;;;;;;;;;;18.86;46.78;100828.84;5092173;28;940;-50
2023/08/18 11:24:59;;;;;;;;;;;;;;;18.97;46.66;100827.66;5076590;28;1055;-48
2023/08/18 11:27:24;;;;;;;;;;;;;;;18.92;46.80;100822.22;5097372;28;1897;-52
2023/08/18 11:29:50;;;;;;;;;;;;;;;18.96;46.62;100823.28;5080546;28;1191;-47
2023/08/18 11:32:15;;;;;;;;;;;;;;;18.98;46.61;100826.56;5080863;28;1299;-52
2023/08/18 11:34:41;;;;;;;;;;;;;;;18.95;46.71;100830.72;5091025;28;1773;-47
2023/08/18 11:37:10;;;;;;;;;;;;;;;19.00;46.56;100831.78;5071194;28;1122;-52
2023/08/18 11:39:36;;;;;;;;;;;;;;;18.98;46.65;100834.84;5091758;28;1377;-53
2023/08/18 11:42:02;;;;;;;;;;;;;;;19.04;46.76;100827.34;5098847;28;1367;-52
2023/08/18 11:44:28;;;;;;;;;;;;;;;19.11;46.71;100830.56;5098454;28;1142;-54
2023/08/18 11:46:54;;;;;;;;;;;;;;;19.06;46.87;100828.69;5085258;28;1174;-54
2023/08/18 11:49:20;;;;;;;;;;;;;;;19.13;46.63;100828.38;5097827;28;1918;-51
2023/08/18 11:51:55;;;;;;;;;;;;;;;16.17;54.33;100822.25;5091754;28;1151;-53
2023/08/18 11:54:21;;;;;;;;;;;;;;;18.11;48.93;100820.50;5097889;28;1006;-55
2023/08/18 11:56:47;;;;;;;;;;;;;;;18.51;47.89;100811.47;5098005;28;1086;-54
2023/08/18 11:59:19;;;;;;;;;;;;;;;18.63;47.49;100820.19;5080082;28;1027;-52
2023/08/18 12:01:44;;;;;;;;;;;;;;;18.75;47.31;100822.59;5094826;28;1150;-47
2023/08/18 12:04:11;;;;;;;;;;;;;;;18.88;46.88;100815.63;5091261;28;1010;-50
2023/08/18 12:06:36;;;;;;;;;;;;;;;18.88;47.01;100805.44;5097352;28;1444;-52
2023/08/18 12:09:05;;;;;;;;;;;;;;;18.92;46.92;100812.00;5097731;28;1984;-53
2023/08/18 12:11:33;;;;;;;;;;;;;;;18.89;46.82;100812.59;5091277;28;1418;-53
2023/08/18 12:13:59;;;;;;;;;;;;;;;18.95;46.86;100805.09;5086782;28;1261;-50
2023/08/18 12:16:24;;;;;;;;;;;;;;;18.87;46.74;100797.41;5098132;28;1134;-51
2023/08/18 12:18:50;;;;;;;;;;;;;;;18.88;46.76;100788.09;5096888;28;1260;-54
2023/08/18 12:21:15;;;;;;;;;;;;;;;18.96;46.66;100792.97;5097971;28;1320;-51
2023/08/18 12:23:41;;;;;;;;;;;;;;;18.96;46.72;100790.22;5097200;28;1034;-46
2023/08/18 12:26:07;;;;;;;;;;;;;;;19.01;46.54;100792.91;5097572;28;999;-50
2023/08/18 12:28:33;;;;;;;;;;;;;;;19.09;46.42;100799.75;5097560;28;2065;-47
2023/08/18 12:31:00;;;;;;;;;;;;;;;19.08;46.40;100801.69;5098001;28;1299;-51
2023/08/18 12:33:25;;;;;;;;;;;;;;;19.08;46.60;100796.19;5098043;28;1252;-46
2023/08/18 12:35:51;;;;;;;;;;;;;;;16.10;54.03;100795.06;5086007;28;1812;-50
2023/08/18 12:38:16;;;;;;;;;;;;;;;18.08;48.86;100799.06;5096978;28;1619;-44
2023/08/18 12:40:42;;;;;;;;;;;;;;;18.52;47.50;100804.84;5097999;28;1098;-46
2023/08/18 12:43:09;;;;;;;;;;;;;;;18.64;46.95;100805.31;5079499;28;1538;-48